createdAt,value
2022-09-22T00:00:43.228Z,11.11
2022-09-22T00:03:10.082Z,11.08
2022-09-22T00:05:36.506Z,11.06
2022-09-22T00:08:02.845Z,11.01
2022-09-22T00:10:29.255Z,10.97
2022-09-22T00:12:55.815Z,10.95
2022-09-22T00:15:22.345Z,10.92
2022-09-22T00:17:48.863Z,10.89
2022-09-22T00:20:15.955Z,10.85
2022-09-22T00:22:42.406Z,10.82
2022-09-22T00:25:09.446Z,10.78
2022-09-22T00:27:35.824Z,10.76
2022-09-22T00:30:02.222Z,10.73
2022-09-22T00:32:28.587Z,10.69
2022-09-22T00:34:54.939Z,10.64
2022-09-22T00:37:21.298Z,10.62
2022-09-22T00:39:47.685Z,10.60
2022-09-22T00:42:14.134Z,10.55
2022-09-22T00:44:44.383Z,10.53
2022-09-22T00:47:19.743Z,10.49
2022-09-22T00:49:49.172Z,10.46
2022-09-22T00:52:20.217Z,10.44
2022-09-22T00:54:48.115Z,10.41
2022-09-22T00:57:20.487Z,10.39
2022-09-22T00:59:49.418Z,10.37
2022-09-22T01:02:15.954Z,10.35
2022-09-22T01:04:42.724Z,10.35
2022-09-22T01:07:11.069Z,10.32
2022-09-22T01:09:38.219Z,10.32
2022-09-22T01:12:05.338Z,10.30
2022-09-22T01:15:05.527Z,10.29
2022-09-22T01:17:51.992Z,10.28
2022-09-22T01:20:40.687Z,10.26
2022-09-22T01:23:24.146Z,10.23
2022-09-22T01:26:15.137Z,10.20
2022-09-22T01:28:47.979Z,10.17
2022-09-22T01:31:43.630Z,10.15
2022-09-22T01:34:34.730Z,10.11
2022-09-22T01:37:17.179Z,10.07
2022-09-22T01:39:51.963Z,10.04
2022-09-22T01:42:25.657Z,10.00
2022-09-22T01:45:01.415Z,9.98
2022-09-22T01:47:53.339Z,9.95
2022-09-22T01:50:32.538Z,9.92
2022-09-22T01:53:03.645Z,9.88
2022-09-22T01:55:38.472Z,9.86
2022-09-22T01:58:13.283Z,9.82
2022-09-22T02:00:44.359Z,9.82
2022-09-22T02:03:19.236Z,9.80
2022-09-22T02:05:53.492Z,9.78
2022-09-22T02:08:27.656Z,9.76
2022-09-22T02:10:58.805Z,9.73
2022-09-22T02:13:25.666Z,9.72
2022-09-22T02:16:01.560Z,9.69
2022-09-22T02:18:35.930Z,9.66
2022-09-22T02:21:03.747Z,9.65
2022-09-22T02:23:32.118Z,9.62
2022-09-22T02:26:02.123Z,9.61
2022-09-22T02:28:32.519Z,9.59
2022-09-22T02:31:19.511Z,9.60
2022-09-22T02:33:48.727Z,9.56
2022-09-22T02:36:28.814Z,9.56
2022-09-22T02:39:06.310Z,9.54
2022-09-22T02:41:44.777Z,9.51
2022-09-22T02:44:20.797Z,9.50
2022-09-22T02:47:00.865Z,9.49
2022-09-22T02:49:28.438Z,9.46
2022-09-22T02:51:54.948Z,9.43
2022-09-22T02:54:22.859Z,9.41
2022-09-22T02:56:49.222Z,9.38
2022-09-22T02:59:15.563Z,9.37
2022-09-22T03:01:42.200Z,9.34
2022-09-22T03:04:08.608Z,9.33
2022-09-22T03:06:34.942Z,9.30
2022-09-22T03:09:01.324Z,9.30
2022-09-22T03:11:27.656Z,9.28
2022-09-22T03:13:54.525Z,9.27
2022-09-22T03:16:20.996Z,9.25
2022-09-22T03:18:47.384Z,9.25
2022-09-22T03:21:13.807Z,9.20
2022-09-22T03:23:40.195Z,9.19
2022-09-22T03:26:06.576Z,9.16
2022-09-22T03:28:32.990Z,9.14
2022-09-22T03:30:59.426Z,9.13
2022-09-22T03:33:25.805Z,9.11
2022-09-22T03:35:52.142Z,9.09
2022-09-22T03:38:18.484Z,9.07
2022-09-22T03:40:52.701Z,9.05
2022-09-22T03:43:20.186Z,9.03
2022-09-22T03:45:46.892Z,8.99
2022-09-22T03:48:13.539Z,8.97
2022-09-22T03:50:39.990Z,8.96
2022-09-22T03:53:06.411Z,8.93
2022-09-22T03:55:32.775Z,8.91
2022-09-22T03:57:59.349Z,8.89
2022-09-22T04:00:26.057Z,8.87
2022-09-22T04:02:52.915Z,8.85
2022-09-22T04:05:19.285Z,8.84
2022-09-22T04:07:45.662Z,8.80
2022-09-22T04:10:12.075Z,8.78
2022-09-22T04:12:38.428Z,8.77
2022-09-22T04:15:05.380Z,8.76
2022-09-22T04:17:31.743Z,8.74
2022-09-22T04:19:58.231Z,8.71
2022-09-22T04:22:24.781Z,8.70
2022-09-22T04:24:51.122Z,8.68
2022-09-22T04:27:20.344Z,8.65
2022-09-22T04:29:47.652Z,8.64
2022-09-22T04:32:14.460Z,8.62
2022-09-22T04:34:40.900Z,8.61
2022-09-22T04:37:07.270Z,8.60
2022-09-22T04:39:33.700Z,8.59
2022-09-22T04:42:00.106Z,8.57
2022-09-22T04:44:26.566Z,8.55
2022-09-22T04:46:53.032Z,8.54
2022-09-22T04:49:19.640Z,8.52
2022-09-22T04:51:45.999Z,8.49
2022-09-22T04:54:14.240Z,8.47
2022-09-22T04:56:41.820Z,8.47
2022-09-22T04:59:08.337Z,8.45
2022-09-22T05:01:36.473Z,8.44
2022-09-22T05:04:03.244Z,8.41
2022-09-22T05:06:29.670Z,8.39
2022-09-22T05:08:56.641Z,8.38
2022-09-22T05:11:24.288Z,8.36
2022-09-22T05:13:50.897Z,8.34
2022-09-22T05:16:18.211Z,8.32
2022-09-22T05:18:44.750Z,8.31
2022-09-22T05:21:11.241Z,8.29
2022-09-22T05:23:37.682Z,8.28
2022-09-22T05:26:04.096Z,8.27
2022-09-22T05:28:30.922Z,8.26
2022-09-22T05:30:57.262Z,8.23
2022-09-22T05:33:23.615Z,8.23
2022-09-22T05:35:50.001Z,8.23
2022-09-22T05:38:16.362Z,8.22
2022-09-22T05:40:45.351Z,8.24
2022-09-22T05:43:11.685Z,8.23
2022-09-22T05:45:38.043Z,8.25
2022-09-22T05:48:04.822Z,8.25
2022-09-22T05:50:31.255Z,8.27
2022-09-22T05:53:05.454Z,8.32
2022-09-22T05:55:32.453Z,8.32
2022-09-22T05:58:00.098Z,8.35
2022-09-22T06:00:27.410Z,8.39
2022-09-22T06:02:54.423Z,8.44
2022-09-22T06:05:21.256Z,8.47
2022-09-22T06:07:49.004Z,8.52
2022-09-22T06:10:15.451Z,8.57
2022-09-22T06:12:41.808Z,8.61
2022-09-22T06:15:08.463Z,8.67
2022-09-22T06:17:34.872Z,8.73
2022-09-22T06:20:01.529Z,8.79
2022-09-22T06:22:27.919Z,8.87
2022-09-22T06:24:54.305Z,8.95
2022-09-22T06:27:20.771Z,9.01
2022-09-22T06:29:47.145Z,9.10
2022-09-22T06:32:13.677Z,9.19
2022-09-22T06:34:40.041Z,9.27
2022-09-22T06:37:09.218Z,9.37
2022-09-22T06:39:38.409Z,9.46
2022-09-22T06:42:05.728Z,9.55
2022-09-22T06:44:32.228Z,9.66
2022-09-22T06:46:58.874Z,9.75
2022-09-22T06:49:26.274Z,9.83
2022-09-22T06:51:52.736Z,9.92
2022-09-22T06:54:21.183Z,10.01
2022-09-22T06:56:49.407Z,10.11
2022-09-22T06:59:16.734Z,10.20
2022-09-22T07:01:45.094Z,10.30
2022-09-22T07:04:12.135Z,10.39
2022-09-22T07:06:40.435Z,10.48
2022-09-22T07:09:07.841Z,10.59
2022-09-22T07:11:39.544Z,10.69
2022-09-22T07:14:06.626Z,10.82
2022-09-22T07:16:33.030Z,10.92
2022-09-22T07:18:59.543Z,11.06
2022-09-22T07:21:30.393Z,11.20
2022-09-22T07:23:57.602Z,11.32
2022-09-22T07:26:32.528Z,11.45
2022-09-22T07:29:01.301Z,11.60
2022-09-22T07:31:29.561Z,11.73
2022-09-22T07:33:56.668Z,11.89
2022-09-22T07:36:26.148Z,12.00
2022-09-22T07:38:54.548Z,12.14
2022-09-22T07:41:27.535Z,12.29
2022-09-22T07:43:56.204Z,12.41
2022-09-22T07:46:23.732Z,12.54
2022-09-22T07:48:50.198Z,12.67
2022-09-22T07:51:24.603Z,12.82
2022-09-22T07:54:07.331Z,12.95
2022-09-22T07:56:35.369Z,13.09
2022-09-22T07:59:10.103Z,13.22
2022-09-22T08:01:39.565Z,13.34
2022-09-22T08:04:06.026Z,13.47
2022-09-22T08:06:33.298Z,13.58
2022-09-22T08:09:00.169Z,13.70
2022-09-22T08:11:28.777Z,13.83
2022-09-22T08:13:59.906Z,13.94
2022-09-22T08:16:32.635Z,14.05
2022-09-22T08:19:03.773Z,14.18
2022-09-22T08:21:35.317Z,14.27
2022-09-22T08:24:03.053Z,14.38
2022-09-22T08:26:29.471Z,14.49
2022-09-22T08:28:56.745Z,14.60
2022-09-22T08:31:25.410Z,14.69
2022-09-22T08:33:53.948Z,14.81
2022-09-22T08:36:22.085Z,14.91
2022-09-22T08:38:49.293Z,15.02
2022-09-22T08:41:31.900Z,15.14
2022-09-22T08:44:03.069Z,15.24
2022-09-22T08:46:47.067Z,15.36
2022-09-22T08:49:50.258Z,15.47
2022-09-22T08:52:30.897Z,15.59
2022-09-22T08:54:59.726Z,15.67
2022-09-22T08:57:47.438Z,15.78
2022-09-22T09:00:17.271Z,15.88
2022-09-22T09:03:19.434Z,15.97
2022-09-22T09:06:12.712Z,16.11
2022-09-22T09:09:10.194Z,16.21
2022-09-22T09:11:55.308Z,16.31
2022-09-22T09:14:36.215Z,16.40
2022-09-22T09:17:12.579Z,16.46
2022-09-22T09:19:45.566Z,16.58
2022-09-22T09:22:25.158Z,16.65
2022-09-22T09:27:58.183Z,16.85
2022-09-22T09:30:24.537Z,16.93
2022-09-22T09:33:01.058Z,17.02
2022-09-22T09:35:44.160Z,17.11
2022-09-22T09:38:26.239Z,17.19
2022-09-22T09:41:18.661Z,17.27
2022-09-22T09:43:45.513Z,17.34
2022-09-22T09:46:34.390Z,17.44
2022-09-22T09:49:14.370Z,17.51
2022-09-22T09:51:47.643Z,17.59
2022-09-22T09:54:17.582Z,17.67
2022-09-22T09:57:06.355Z,17.76
2022-09-22T09:59:52.306Z,17.82
2022-09-22T10:02:30.322Z,17.95
2022-09-22T10:05:01.025Z,18.01
2022-09-22T10:10:32.736Z,18.19
2022-09-22T10:13:05.220Z,18.29
2022-09-22T10:15:34.579Z,18.36
2022-09-22T10:18:01.685Z,18.42
2022-09-22T10:20:31.546Z,18.51
2022-09-22T10:23:21.208Z,18.60
2022-09-22T10:25:49.528Z,18.68
2022-09-22T10:28:17.487Z,18.75
2022-09-22T10:30:45.171Z,18.83
2022-09-22T10:33:20.382Z,18.92
2022-09-22T10:36:09.405Z,18.99
2022-09-22T10:38:40.878Z,19.08
2022-09-22T10:41:11.834Z,19.17
2022-09-22T10:43:43.257Z,19.24
2022-09-22T10:46:12.738Z,19.30
2022-09-22T10:48:54.686Z,19.39
2022-09-22T10:51:54.914Z,19.45
2022-09-22T10:54:57.202Z,19.53
2022-09-22T10:57:37.957Z,19.60
2022-09-22T11:00:16.510Z,19.67
2022-09-22T11:03:04.830Z,19.72
2022-09-22T11:06:15.235Z,19.81
2022-09-22T11:09:09.068Z,19.87
2022-09-22T11:12:14.998Z,19.98
2022-09-22T11:15:07.680Z,20.07
2022-09-22T11:17:45.453Z,20.11
2022-09-22T11:20:38.967Z,20.20
2022-09-22T11:23:24.063Z,20.26
2022-09-22T11:26:32.537Z,20.33
2022-09-22T11:29:23.500Z,20.39
2022-09-22T11:32:36.286Z,20.46
2022-09-22T11:35:31.018Z,20.54
2022-09-22T11:38:15.602Z,20.61
2022-09-22T11:40:49.721Z,20.68
2022-09-22T11:43:55.731Z,20.75
2022-09-22T11:46:44.910Z,20.83
2022-09-22T11:49:45.022Z,20.91
2022-09-22T11:52:19.906Z,20.96
2022-09-22T11:55:18.467Z,21.05
2022-09-22T11:57:50.683Z,21.13
2022-09-22T12:00:20.141Z,21.19
2022-09-22T12:03:10.446Z,21.31
2022-09-22T12:05:48.403Z,21.43
2022-09-22T12:08:20.535Z,21.56
2022-09-22T12:10:48.449Z,21.68
2022-09-22T12:13:22.366Z,21.80
2022-09-22T12:16:10.059Z,21.93
2022-09-22T12:18:54.835Z,22.02
2022-09-22T12:21:57.818Z,22.14
2022-09-22T12:24:24.745Z,22.20
2022-09-22T12:26:51.588Z,22.25
2022-09-22T12:29:32.261Z,22.31
2022-09-22T12:31:59.838Z,22.35
2022-09-22T12:34:29.427Z,22.39
2022-09-22T12:36:59.901Z,22.43
2022-09-22T12:39:29.533Z,22.44
2022-09-22T12:41:59.762Z,22.44
2022-09-22T12:44:31.504Z,22.43
2022-09-22T12:47:02.525Z,22.43
2022-09-22T12:49:28.973Z,22.44
2022-09-22T12:51:55.385Z,22.47
2022-09-22T12:54:21.644Z,22.48
2022-09-22T12:57:01.801Z,22.48
2022-09-22T12:59:40.315Z,22.48
2022-09-22T13:02:16.146Z,22.49
2022-09-22T13:05:03.536Z,22.52
2022-09-22T13:07:37.942Z,22.55
2022-09-22T13:10:25.323Z,22.57
2022-09-22T13:13:00.960Z,22.58
2022-09-22T13:15:31.998Z,22.58
2022-09-22T13:17:58.844Z,22.57
2022-09-22T13:20:27.915Z,22.58
2022-09-22T13:22:55.265Z,22.57
2022-09-22T13:25:29.968Z,22.60
2022-09-22T13:28:03.510Z,22.62
2022-09-22T13:30:29.929Z,22.57
2022-09-22T13:32:56.302Z,22.56
2022-09-22T13:35:28.094Z,22.53
2022-09-22T13:37:56.767Z,22.48
2022-09-22T13:40:27.188Z,22.44
2022-09-22T13:42:57.821Z,22.40
2022-09-22T13:45:27.355Z,22.34
2022-09-22T13:48:02.680Z,22.33
2022-09-22T13:50:32.609Z,22.32
2022-09-22T13:53:00.149Z,22.37
2022-09-22T13:55:34.691Z,22.42
2022-09-22T13:58:03.242Z,22.47
2022-09-22T14:01:08.651Z,22.54
2022-09-22T14:03:36.137Z,22.62
2022-09-22T14:06:02.982Z,22.66
2022-09-22T14:08:31.834Z,22.72
2022-09-22T14:10:59.617Z,22.77
2022-09-22T14:13:43.723Z,22.85
2022-09-22T14:16:20.129Z,22.89
2022-09-22T14:18:49.098Z,22.92
2022-09-22T14:21:16.203Z,22.95
2022-09-22T14:23:46.085Z,22.98
2022-09-22T14:26:27.071Z,22.99
2022-09-22T14:28:56.443Z,23.00
2022-09-22T14:31:29.268Z,23.01
2022-09-22T14:33:56.625Z,23.00
2022-09-22T14:36:25.850Z,23.02
2022-09-22T14:39:09.765Z,23.07
2022-09-22T14:41:37.772Z,23.10
2022-09-22T14:44:39.463Z,23.16
2022-09-22T14:47:29.971Z,23.18
2022-09-22T14:50:19.966Z,23.20
2022-09-22T14:53:06.727Z,23.18
2022-09-22T14:55:39.288Z,23.20
2022-09-22T14:58:14.387Z,23.18
2022-09-22T15:01:10.429Z,23.17
2022-09-22T15:03:38.792Z,23.12
2022-09-22T15:06:10.498Z,23.09
2022-09-22T15:08:37.299Z,23.05
2022-09-22T15:11:07.015Z,23.00
2022-09-22T15:13:45.401Z,22.97
2022-09-22T15:16:37.912Z,22.94
2022-09-22T15:19:05.370Z,22.88
2022-09-22T15:21:37.276Z,22.84
2022-09-22T15:24:06.578Z,22.76
2022-09-22T15:26:33.451Z,22.71
2022-09-22T15:29:01.207Z,22.66
2022-09-22T15:31:29.407Z,22.61
2022-09-22T15:33:59.962Z,22.59
2022-09-22T15:36:31.841Z,22.55
2022-09-22T15:39:16.090Z,22.53
2022-09-22T15:41:42.490Z,22.52
2022-09-22T15:44:09.083Z,22.50
2022-09-22T15:46:37.621Z,22.48
2022-09-22T15:49:09.106Z,22.44
2022-09-22T15:51:35.659Z,22.43
2022-09-22T15:54:02.335Z,22.41
2022-09-22T15:56:30.393Z,22.41
2022-09-22T15:59:01.165Z,22.42
2022-09-22T16:01:29.356Z,22.44
2022-09-22T16:04:00.139Z,22.46
2022-09-22T16:06:32.898Z,22.48
2022-09-22T16:08:59.313Z,22.48
2022-09-22T16:11:29.560Z,22.50
2022-09-22T16:14:03.839Z,22.51
2022-09-22T16:16:32.235Z,22.52
2022-09-22T16:18:59.776Z,22.51
2022-09-22T16:21:34.909Z,22.53
2022-09-22T16:24:08.562Z,22.54
2022-09-22T16:26:39.999Z,22.55
2022-09-22T16:29:07.681Z,22.54
2022-09-22T16:31:37.522Z,22.54
2022-09-22T16:34:05.197Z,22.52
2022-09-22T16:36:34.105Z,22.50
2022-09-22T16:39:01.840Z,22.46
2022-09-22T16:41:30.187Z,22.43
2022-09-22T16:43:57.640Z,22.35
2022-09-22T16:46:28.847Z,22.28
2022-09-22T16:48:56.582Z,22.20
2022-09-22T16:51:22.925Z,22.11
2022-09-22T16:53:55.257Z,22.02
2022-09-22T16:56:26.762Z,21.91
2022-09-22T16:58:54.135Z,21.79
2022-09-22T17:01:20.803Z,21.69
2022-09-22T17:03:49.485Z,21.58
2022-09-22T17:06:18.204Z,21.45
2022-09-22T17:08:45.685Z,21.33
2022-09-22T17:11:13.655Z,21.21
2022-09-22T17:13:43.222Z,21.10
2022-09-22T17:16:25.115Z,20.96
2022-09-22T17:18:52.644Z,20.83
2022-09-22T17:21:21.849Z,20.70
2022-09-22T17:23:50.235Z,20.57
2022-09-22T17:26:18.282Z,20.44
2022-09-22T17:28:44.751Z,20.29
2022-09-22T17:31:11.119Z,20.15
2022-09-22T17:33:52.104Z,20.01
2022-09-22T17:36:21.045Z,19.86
2022-09-22T17:38:50.667Z,19.71
2022-09-22T17:41:21.951Z,19.58
2022-09-22T17:43:55.750Z,19.45
2022-09-22T17:46:22.478Z,19.31
2022-09-22T17:49:07.670Z,19.20
2022-09-22T17:52:08.749Z,19.10
2022-09-22T17:54:58.751Z,18.97
2022-09-22T17:57:30.502Z,18.85
2022-09-22T17:59:58.230Z,18.74
2022-09-22T18:02:32.456Z,18.64
2022-09-22T18:04:58.935Z,18.54
2022-09-22T18:07:26.998Z,18.46
2022-09-22T18:09:56.703Z,18.37
2022-09-22T18:12:24.829Z,18.28
2022-09-22T18:14:55.431Z,18.22
2022-09-22T18:17:24.719Z,18.17
2022-09-22T18:19:54.629Z,18.09
2022-09-22T18:22:22.122Z,18.00
2022-09-22T18:24:49.847Z,17.92
2022-09-22T18:27:19.430Z,17.85
2022-09-22T18:29:49.862Z,17.78
2022-09-22T18:32:17.773Z,17.71
2022-09-22T18:34:44.668Z,17.65
2022-09-22T18:37:11.132Z,17.58
2022-09-22T18:39:41.678Z,17.50
2022-09-22T18:42:12.424Z,17.44
2022-09-22T18:44:39.971Z,17.38
2022-09-22T18:47:08.463Z,17.31
2022-09-22T18:49:37.631Z,17.25
2022-09-22T18:52:07.651Z,17.20
2022-09-22T18:54:35.234Z,17.14
2022-09-22T18:57:03.533Z,17.08
2022-09-22T18:59:29.979Z,17.02
2022-09-22T19:01:56.964Z,16.97
2022-09-22T19:04:26.577Z,16.93
2022-09-22T19:07:13.503Z,16.87
2022-09-22T19:09:40.261Z,16.80
2022-09-22T19:12:08.114Z,16.74
2022-09-22T19:14:39.219Z,16.67
2022-09-22T19:17:07.554Z,16.61
2022-09-22T19:19:36.523Z,16.54
2022-09-22T19:22:08.301Z,16.51
2022-09-22T19:24:36.083Z,16.43
2022-09-22T19:27:04.580Z,16.38
2022-09-22T19:29:32.032Z,16.33
2022-09-22T19:31:59.078Z,16.27
2022-09-22T19:34:25.838Z,16.21
2022-09-22T19:36:52.534Z,16.15
2022-09-22T19:39:18.897Z,16.10
2022-09-22T19:41:48.164Z,16.04
2022-09-22T19:44:16.166Z,15.98
2022-09-22T19:46:43.742Z,15.93
2022-09-22T19:49:10.208Z,15.87
2022-09-22T19:51:36.592Z,15.81
2022-09-22T19:54:03.182Z,15.76
2022-09-22T19:56:29.507Z,15.71
2022-09-22T19:58:55.822Z,15.66
2022-09-22T20:01:31.222Z,15.62
2022-09-22T20:03:59.039Z,15.57
2022-09-22T20:06:26.946Z,15.52
2022-09-22T20:09:02.726Z,15.48
2022-09-22T20:11:38.602Z,15.45
2022-09-22T20:14:26.942Z,15.40
2022-09-22T20:17:02.684Z,15.35
2022-09-22T20:19:31.498Z,15.31
2022-09-22T20:22:26.133Z,15.28
2022-09-22T20:24:55.633Z,15.23
2022-09-22T20:27:40.976Z,15.19
2022-09-22T20:30:08.871Z,15.14
2022-09-22T20:32:35.259Z,15.11
2022-09-22T20:35:01.697Z,15.07
2022-09-22T20:37:28.281Z,15.03
2022-09-22T20:39:56.012Z,15.00
2022-09-22T20:42:23.181Z,14.97
2022-09-22T20:44:49.672Z,14.92
2022-09-22T20:47:18.921Z,14.89
2022-09-22T20:49:50.626Z,14.85
2022-09-22T20:52:19.852Z,14.80
2022-09-22T20:54:46.492Z,14.76
2022-09-22T20:57:14.008Z,14.72
2022-09-22T20:59:40.443Z,14.68
2022-09-22T21:02:07.149Z,14.65
2022-09-22T21:04:33.798Z,14.61
2022-09-22T21:07:01.257Z,14.58
2022-09-22T21:09:46.282Z,14.54
2022-09-22T21:12:13.451Z,14.49
2022-09-22T21:14:42.796Z,14.46
2022-09-22T21:17:09.167Z,14.41
2022-09-22T21:19:36.449Z,14.37
2022-09-22T21:22:03.182Z,14.33
2022-09-22T21:24:31.310Z,14.30
2022-09-22T21:26:59.482Z,14.25
2022-09-22T21:29:26.005Z,14.22
2022-09-22T21:31:52.578Z,14.19
2022-09-22T21:34:18.986Z,14.17
2022-09-22T21:36:45.479Z,14.14
2022-09-22T21:39:12.127Z,14.11
2022-09-22T21:41:38.651Z,14.09
2022-09-22T21:44:05.797Z,14.05
2022-09-22T21:46:32.989Z,14.03
2022-09-22T21:49:02.052Z,14.02
2022-09-22T21:51:31.026Z,14.00
2022-09-22T21:53:57.370Z,13.99
2022-09-22T21:56:25.161Z,13.98
2022-09-22T21:58:54.146Z,13.98
2022-09-22T22:01:29.378Z,13.95
2022-09-22T22:03:57.766Z,13.94
2022-09-22T22:06:34.266Z,13.95
2022-09-22T22:09:12.492Z,13.92
2022-09-22T22:11:42.341Z,13.91
2022-09-22T22:14:10.666Z,13.89
2022-09-22T22:16:38.642Z,13.87
2022-09-22T22:19:06.323Z,13.85
2022-09-22T22:21:33.556Z,13.84
2022-09-22T22:24:18.568Z,13.83
2022-09-22T22:26:47.320Z,13.80
2022-09-22T22:29:14.118Z,13.78
2022-09-22T22:31:41.428Z,13.75
2022-09-22T22:34:13.220Z,13.73
2022-09-22T22:36:40.158Z,13.70
2022-09-22T22:39:06.970Z,13.68
2022-09-22T22:41:33.347Z,13.65
2022-09-22T22:44:01.755Z,13.61
2022-09-22T22:46:29.755Z,13.58
2022-09-22T22:48:57.098Z,13.56
2022-09-22T22:51:23.868Z,13.55
2022-09-22T22:53:51.727Z,13.53
2022-09-22T22:56:38.745Z,13.51
2022-09-22T22:59:08.187Z,13.48
2022-09-22T23:01:34.765Z,13.47
2022-09-22T23:04:06.913Z,13.45
2022-09-22T23:06:36.039Z,13.41
2022-09-22T23:09:04.184Z,13.37
2022-09-22T23:11:37.045Z,13.36
2022-09-22T23:14:06.091Z,13.33
2022-09-22T23:16:34.902Z,13.29
2022-09-22T23:19:07.138Z,13.26
2022-09-22T23:21:33.897Z,13.23
2022-09-22T23:24:01.134Z,13.20
2022-09-22T23:26:29.109Z,13.17
2022-09-22T23:28:55.890Z,13.15
2022-09-22T23:31:22.228Z,13.13
2022-09-22T23:33:50.629Z,13.11
2022-09-22T23:36:35.133Z,13.09
2022-09-22T23:39:03.776Z,13.08
2022-09-22T23:41:31.955Z,13.05
2022-09-22T23:43:58.441Z,13.04
2022-09-22T23:46:25.151Z,13.02
2022-09-22T23:48:51.643Z,13.01
2022-09-22T23:51:19.538Z,12.99
2022-09-22T23:53:45.951Z,12.98
2022-09-22T23:56:12.333Z,12.96
2022-09-22T23:58:38.940Z,12.95
